sensor_id;sensor_type;location;lat;lon;timestamp;P1;durP1;ratioP1;P2;durP2;ratioP2
73150;SDS011;61354;50.758;6.106;2022-09-02T00:01:26;3.22;;;1.92;;
73150;SDS011;61354;50.758;6.106;2022-09-02T00:03:54;3.42;;;2.03;;
73150;SDS011;61354;50.758;6.106;2022-09-02T00:06:23;3.70;;;1.90;;
73150;SDS011;61354;50.758;6.106;2022-09-02T00:08:48;4.15;;;2.20;;
73150;SDS011;61354;50.758;6.106;2022-09-02T00:11:15;4.32;;;2.03;;
73150;SDS011;61354;50.758;6.106;2022-09-02T00:13:43;4.60;;;2.28;;
73150;SDS011;61354;50.758;6.106;2022-09-02T00:16:09;3.88;;;1.73;;
73150;SDS011;61354;50.758;6.106;2022-09-02T00:18:35;2.47;;;1.73;;
73150;SDS011;61354;50.758;6.106;2022-09-02T00:21:01;2.75;;;1.90;;
73150;SDS011;61354;50.758;6.106;2022-09-02T00:23:27;3.33;;;1.85;;
73150;SDS011;61354;50.758;6.106;2022-09-02T00:25:52;3.97;;;1.92;;
73150;SDS011;61354;50.758;6.106;2022-09-02T00:28:18;4.22;;;2.00;;
73150;SDS011;61354;50.758;6.106;2022-09-02T00:30:43;4.93;;;2.05;;
73150;SDS011;61354;50.758;6.106;2022-09-02T00:33:09;3.15;;;1.88;;
73150;SDS011;61354;50.758;6.106;2022-09-02T00:35:36;3.17;;;1.95;;
73150;SDS011;61354;50.758;6.106;2022-09-02T00:38:02;4.15;;;1.80;;
73150;SDS011;61354;50.758;6.106;2022-09-02T00:40:29;3.80;;;1.90;;
73150;SDS011;61354;50.758;6.106;2022-09-02T00:42:56;2.85;;;1.80;;
73150;SDS011;61354;50.758;6.106;2022-09-02T00:45:22;4.72;;;1.98;;
73150;SDS011;61354;50.758;6.106;2022-09-02T00:47:48;3.20;;;1.90;;
73150;SDS011;61354;50.758;6.106;2022-09-02T00:50:17;3.90;;;1.95;;
73150;SDS011;61354;50.758;6.106;2022-09-02T00:52:47;3.65;;;1.92;;
73150;SDS011;61354;50.758;6.106;2022-09-02T00:55:25;3.40;;;2.00;;
73150;SDS011;61354;50.758;6.106;2022-09-02T00:57:59;2.85;;;1.90;;
73150;SDS011;61354;50.758;6.106;2022-09-02T01:00:35;2.65;;;1.70;;
73150;SDS011;61354;50.758;6.106;2022-09-02T01:03:07;4.05;;;1.63;;
73150;SDS011;61354;50.758;6.106;2022-09-02T01:05:38;4.50;;;1.92;;
73150;SDS011;61354;50.758;6.106;2022-09-02T01:08:08;4.32;;;1.98;;
73150;SDS011;61354;50.758;6.106;2022-09-02T01:10:34;3.22;;;1.95;;
73150;SDS011;61354;50.758;6.106;2022-09-02T01:13:02;3.03;;;2.03;;
73150;SDS011;61354;50.758;6.106;2022-09-02T01:15:33;3.17;;;1.70;;
73150;SDS011;61354;50.758;6.106;2022-09-02T01:18:01;3.00;;;2.00;;
73150;SDS011;61354;50.758;6.106;2022-09-02T01:20:28;2.90;;;1.95;;
73150;SDS011;61354;50.758;6.106;2022-09-02T01:22:54;2.85;;;1.85;;
73150;SDS011;61354;50.758;6.106;2022-09-02T01:25:22;2.97;;;1.80;;
73150;SDS011;61354;50.758;6.106;2022-09-02T01:27:49;3.10;;;2.00;;
73150;SDS011;61354;50.758;6.106;2022-09-02T01:30:17;2.53;;;1.90;;
73150;SDS011;61354;50.758;6.106;2022-09-02T01:32:46;3.95;;;1.88;;
73150;SDS011;61354;50.758;6.106;2022-09-02T01:35:12;4.30;;;2.13;;
73150;SDS011;61354;50.758;6.106;2022-09-02T01:37:38;3.53;;;1.95;;
73150;SDS011;61354;50.758;6.106;2022-09-02T01:40:09;2.75;;;1.90;;
73150;SDS011;61354;50.758;6.106;2022-09-02T01:42:36;2.75;;;2.00;;
73150;SDS011;61354;50.758;6.106;2022-09-02T01:45:03;3.50;;;2.08;;
73150;SDS011;61354;50.758;6.106;2022-09-02T01:47:29;3.67;;;1.90;;
73150;SDS011;61354;50.758;6.106;2022-09-02T01:49:56;3.92;;;1.83;;
73150;SDS011;61354;50.758;6.106;2022-09-02T01:52:22;2.95;;;1.88;;
73150;SDS011;61354;50.758;6.106;2022-09-02T01:54:49;3.72;;;1.92;;
73150;SDS011;61354;50.758;6.106;2022-09-02T01:57:15;3.40;;;2.10;;
73150;SDS011;61354;50.758;6.106;2022-09-02T01:59:44;2.92;;;1.92;;
73150;SDS011;61354;50.758;6.106;2022-09-02T02:02:10;3.63;;;1.80;;
73150;SDS011;61354;50.758;6.106;2022-09-02T02:04:43;3.97;;;1.90;;
73150;SDS011;61354;50.758;6.106;2022-09-02T02:07:09;3.28;;;1.95;;
73150;SDS011;61354;50.758;6.106;2022-09-02T02:09:44;5.20;;;2.15;;
73150;SDS011;61354;50.758;6.106;2022-09-02T02:12:09;3.60;;;1.90;;
73150;SDS011;61354;50.758;6.106;2022-09-02T02:14:44;3.08;;;2.13;;
73150;SDS011;61354;50.758;6.106;2022-09-02T02:17:10;3.92;;;2.00;;
73150;SDS011;61354;50.758;6.106;2022-09-02T02:19:35;3.40;;;2.03;;
73150;SDS011;61354;50.758;6.106;2022-09-02T02:22:01;3.67;;;2.00;;
73150;SDS011;61354;50.758;6.106;2022-09-02T02:24:27;3.47;;;2.05;;
73150;SDS011;61354;50.758;6.106;2022-09-02T02:26:52;3.15;;;2.08;;
73150;SDS011;61354;50.758;6.106;2022-09-02T02:29:18;3.05;;;1.95;;
73150;SDS011;61354;50.758;6.106;2022-09-02T02:31:44;3.47;;;1.95;;
73150;SDS011;61354;50.758;6.106;2022-09-02T02:34:09;3.95;;;2.20;;
73150;SDS011;61354;50.758;6.106;2022-09-02T02:36:35;4.03;;;2.17;;
73150;SDS011;61354;50.758;6.106;2022-09-02T02:39:02;2.80;;;2.00;;
73150;SDS011;61354;50.758;6.106;2022-09-02T02:41:29;3.22;;;2.05;;
73150;SDS011;61354;50.758;6.106;2022-09-02T02:43:55;3.70;;;2.20;;
73150;SDS011;61354;50.758;6.106;2022-09-02T02:46:21;3.67;;;2.30;;
73150;SDS011;61354;50.758;6.106;2022-09-02T02:48:46;4.13;;;2.53;;
73150;SDS011;61354;50.758;6.106;2022-09-02T02:51:12;3.72;;;2.55;;
73150;SDS011;61354;50.758;6.106;2022-09-02T02:53:38;3.42;;;2.45;;
73150;SDS011;61354;50.758;6.106;2022-09-02T02:56:05;4.78;;;2.28;;
73150;SDS011;61354;50.758;6.106;2022-09-02T02:58:31;3.08;;;2.38;;
73150;SDS011;61354;50.758;6.106;2022-09-02T03:00:57;4.03;;;2.28;;
73150;SDS011;61354;50.758;6.106;2022-09-02T03:03:23;5.15;;;2.55;;
73150;SDS011;61354;50.758;6.106;2022-09-02T03:05:49;3.55;;;2.30;;
73150;SDS011;61354;50.758;6.106;2022-09-02T03:08:15;3.25;;;2.30;;
73150;SDS011;61354;50.758;6.106;2022-09-02T03:10:45;3.30;;;2.40;;
73150;SDS011;61354;50.758;6.106;2022-09-02T03:13:14;3.53;;;2.15;;
73150;SDS011;61354;50.758;6.106;2022-09-02T03:15:40;4.32;;;2.28;;
73150;SDS011;61354;50.758;6.106;2022-09-02T03:18:06;3.88;;;2.22;;
73150;SDS011;61354;50.758;6.106;2022-09-02T03:20:33;4.53;;;2.40;;
73150;SDS011;61354;50.758;6.106;2022-09-02T03:22:59;3.92;;;2.45;;
73150;SDS011;61354;50.758;6.106;2022-09-02T03:25:26;3.50;;;2.30;;
73150;SDS011;61354;50.758;6.106;2022-09-02T03:27:53;4.25;;;2.20;;
73150;SDS011;61354;50.758;6.106;2022-09-02T03:30:25;5.35;;;2.53;;
73150;SDS011;61354;50.758;6.106;2022-09-02T03:32:52;3.30;;;2.38;;
73150;SDS011;61354;50.758;6.106;2022-09-02T03:35:20;3.08;;;2.30;;
73150;SDS011;61354;50.758;6.106;2022-09-02T03:37:47;4.20;;;2.38;;
73150;SDS011;61354;50.758;6.106;2022-09-02T03:40:15;4.05;;;2.60;;
73150;SDS011;61354;50.758;6.106;2022-09-02T03:42:43;5.88;;;2.30;;
73150;SDS011;61354;50.758;6.106;2022-09-02T03:45:10;5.55;;;2.40;;
73150;SDS011;61354;50.758;6.106;2022-09-02T03:47:36;3.78;;;2.35;;
73150;SDS011;61354;50.758;6.106;2022-09-02T03:50:04;3.13;;;2.25;;
73150;SDS011;61354;50.758;6.106;2022-09-02T03:52:30;4.07;;;2.67;;
73150;SDS011;61354;50.758;6.106;2022-09-02T03:54:56;3.25;;;2.33;;
73150;SDS011;61354;50.758;6.106;2022-09-02T03:57:21;3.50;;;2.42;;
73150;SDS011;61354;50.758;6.106;2022-09-02T03:59:50;5.65;;;2.55;;
73150;SDS011;61354;50.758;6.106;2022-09-02T04:02:15;3.30;;;2.50;;
73150;SDS011;61354;50.758;6.106;2022-09-02T04:04:41;4.32;;;2.38;;
73150;SDS011;61354;50.758;6.106;2022-09-02T04:07:06;3.55;;;2.35;;
73150;SDS011;61354;50.758;6.106;2022-09-02T04:09:32;4.53;;;2.63;;
73150;SDS011;61354;50.758;6.106;2022-09-02T04:11:57;5.30;;;2.45;;
73150;SDS011;61354;50.758;6.106;2022-09-02T04:14:23;4.35;;;2.50;;
73150;SDS011;61354;50.758;6.106;2022-09-02T04:23:32;3.90;;;2.20;;
73150;SDS011;61354;50.758;6.106;2022-09-02T04:25:58;3.83;;;2.50;;
73150;SDS011;61354;50.758;6.106;2022-09-02T04:28:27;4.07;;;2.80;;
73150;SDS011;61354;50.758;6.106;2022-09-02T04:30:52;3.72;;;2.35;;
73150;SDS011;61354;50.758;6.106;2022-09-02T04:33:18;5.15;;;2.70;;
73150;SDS011;61354;50.758;6.106;2022-09-02T04:35:44;3.45;;;2.55;;
73150;SDS011;61354;50.758;6.106;2022-09-02T04:38:10;4.55;;;2.83;;
73150;SDS011;61354;50.758;6.106;2022-09-02T04:40:43;4.57;;;2.72;;
73150;SDS011;61354;50.758;6.106;2022-09-02T04:43:10;4.43;;;2.42;;
73150;SDS011;61354;50.758;6.106;2022-09-02T04:45:43;3.55;;;2.35;;
73150;SDS011;61354;50.758;6.106;2022-09-02T04:48:10;4.45;;;2.38;;
73150;SDS011;61354;50.758;6.106;2022-09-02T04:50:37;3.63;;;2.60;;
73150;SDS011;61354;50.758;6.106;2022-09-02T04:55:30;3.85;;;2.78;;
73150;SDS011;61354;50.758;6.106;2022-09-02T04:57:56;5.13;;;2.85;;
73150;SDS011;61354;50.758;6.106;2022-09-02T05:00:22;3.88;;;2.30;;
73150;SDS011;61354;50.758;6.106;2022-09-02T05:02:49;3.75;;;2.65;;
73150;SDS011;61354;50.758;6.106;2022-09-02T05:05:15;3.72;;;2.47;;
73150;SDS011;61354;50.758;6.106;2022-09-02T05:07:40;3.40;;;2.50;;
73150;SDS011;61354;50.758;6.106;2022-09-02T05:10:06;3.25;;;2.33;;
73150;SDS011;61354;50.758;6.106;2022-09-02T05:12:33;4.88;;;2.83;;
73150;SDS011;61354;50.758;6.106;2022-09-02T05:14:59;4.53;;;2.70;;
73150;SDS011;61354;50.758;6.106;2022-09-02T05:17:25;4.45;;;2.70;;
73150;SDS011;61354;50.758;6.106;2022-09-02T05:19:57;3.63;;;2.67;;
73150;SDS011;61354;50.758;6.106;2022-09-02T05:22:23;5.00;;;2.53;;
73150;SDS011;61354;50.758;6.106;2022-09-02T05:24:50;4.90;;;2.63;;
73150;SDS011;61354;50.758;6.106;2022-09-02T05:27:15;4.15;;;2.50;;
73150;SDS011;61354;50.758;6.106;2022-09-02T05:29:41;3.88;;;2.50;;
73150;SDS011;61354;50.758;6.106;2022-09-02T05:32:06;3.47;;;2.40;;
73150;SDS011;61354;50.758;6.106;2022-09-02T05:34:33;3.55;;;2.50;;
73150;SDS011;61354;50.758;6.106;2022-09-02T05:37:00;3.55;;;2.65;;
73150;SDS011;61354;50.758;6.106;2022-09-02T05:39:27;4.80;;;2.60;;
73150;SDS011;61354;50.758;6.106;2022-09-02T05:41:54;4.72;;;2.40;;
73150;SDS011;61354;50.758;6.106;2022-09-02T05:44:20;4.75;;;2.70;;
73150;SDS011;61354;50.758;6.106;2022-09-02T05:46:45;5.95;;;3.30;;
73150;SDS011;61354;50.758;6.106;2022-09-02T05:49:11;5.28;;;2.78;;
73150;SDS011;61354;50.758;6.106;2022-09-02T05:54:30;4.70;;;3.08;;
73150;SDS011;61354;50.758;6.106;2022-09-02T05:57:02;5.85;;;2.83;;
73150;SDS011;61354;50.758;6.106;2022-09-02T05:59:29;4.82;;;2.50;;
73150;SDS011;61354;50.758;6.106;2022-09-02T06:01:56;4.25;;;2.78;;
73150;SDS011;61354;50.758;6.106;2022-09-02T06:06:50;4.72;;;2.60;;
73150;SDS011;61354;50.758;6.106;2022-09-02T06:09:17;3.70;;;2.40;;
73150;SDS011;61354;50.758;6.106;2022-09-02T06:11:45;4.00;;;2.67;;
73150;SDS011;61354;50.758;6.106;2022-09-02T06:14:17;4.53;;;2.70;;
73150;SDS011;61354;50.758;6.106;2022-09-02T06:16:46;4.40;;;2.40;;
73150;SDS011;61354;50.758;6.106;2022-09-02T06:19:13;4.70;;;2.60;;
73150;SDS011;61354;50.758;6.106;2022-09-02T06:21:38;6.70;;;2.85;;
73150;SDS011;61354;50.758;6.106;2022-09-02T06:24:07;5.35;;;2.65;;
73150;SDS011;61354;50.758;6.106;2022-09-02T06:26:34;5.35;;;2.95;;
73150;SDS011;61354;50.758;6.106;2022-09-02T06:29:01;5.18;;;2.63;;
73150;SDS011;61354;50.758;6.106;2022-09-02T06:31:28;4.05;;;2.42;;
73150;SDS011;61354;50.758;6.106;2022-09-02T06:33:54;4.72;;;2.50;;
73150;SDS011;61354;50.758;6.106;2022-09-02T06:36:21;5.05;;;3.08;;
73150;SDS011;61354;50.758;6.106;2022-09-02T06:38:49;7.30;;;2.70;;
73150;SDS011;61354;50.758;6.106;2022-09-02T06:41:17;5.07;;;2.88;;
73150;SDS011;61354;50.758;6.106;2022-09-02T06:43:47;5.72;;;2.78;;
73150;SDS011;61354;50.758;6.106;2022-09-02T06:46:14;7.78;;;2.78;;
73150;SDS011;61354;50.758;6.106;2022-09-02T06:48:42;11.68;;;2.67;;
73150;SDS011;61354;50.758;6.106;2022-09-02T06:51:08;5.28;;;2.72;;
73150;SDS011;61354;50.758;6.106;2022-09-02T06:53:43;4.43;;;2.58;;
73150;SDS011;61354;50.758;6.106;2022-09-02T06:56:08;3.78;;;2.70;;
73150;SDS011;61354;50.758;6.106;2022-09-02T06:58:35;4.40;;;2.45;;
73150;SDS011;61354;50.758;6.106;2022-09-02T07:01:00;6.95;;;2.85;;
73150;SDS011;61354;50.758;6.106;2022-09-02T07:03:26;4.40;;;2.72;;
73150;SDS011;61354;50.758;6.106;2022-09-02T07:06:10;3.35;;;2.25;;
73150;SDS011;61354;50.758;6.106;2022-09-02T07:08:37;3.90;;;2.40;;
73150;SDS011;61354;50.758;6.106;2022-09-02T07:11:05;5.03;;;2.63;;
73150;SDS011;61354;50.758;6.106;2022-09-02T07:13:32;3.50;;;2.40;;
73150;SDS011;61354;50.758;6.106;2022-09-02T07:15:58;5.90;;;2.60;;
73150;SDS011;61354;50.758;6.106;2022-09-02T07:18:25;4.10;;;2.13;;
73150;SDS011;61354;50.758;6.106;2022-09-02T07:20:51;3.45;;;2.15;;
73150;SDS011;61354;50.758;6.106;2022-09-02T07:23:18;4.00;;;2.10;;
73150;SDS011;61354;50.758;6.106;2022-09-02T07:25:44;3.95;;;2.03;;
73150;SDS011;61354;50.758;6.106;2022-09-02T07:28:10;3.80;;;1.95;;
73150;SDS011;61354;50.758;6.106;2022-09-02T07:30:36;3.10;;;2.20;;
73150;SDS011;61354;50.758;6.106;2022-09-02T07:33:05;4.13;;;1.83;;
73150;SDS011;61354;50.758;6.106;2022-09-02T07:35:31;4.47;;;2.42;;
73150;SDS011;61354;50.758;6.106;2022-09-02T07:37:57;3.40;;;1.80;;
73150;SDS011;61354;50.758;6.106;2022-09-02T07:40:23;3.85;;;2.00;;
73150;SDS011;61354;50.758;6.106;2022-09-02T07:42:48;3.45;;;1.88;;
73150;SDS011;61354;50.758;6.106;2022-09-02T07:45:14;3.10;;;1.90;;
73150;SDS011;61354;50.758;6.106;2022-09-02T07:47:46;3.17;;;2.03;;
73150;SDS011;61354;50.758;6.106;2022-09-02T07:52:45;2.78;;;1.77;;
73150;SDS011;61354;50.758;6.106;2022-09-02T08:01:10;3.75;;;1.83;;
73150;SDS011;61354;50.758;6.106;2022-09-02T08:03:45;2.95;;;1.90;;
73150;SDS011;61354;50.758;6.106;2022-09-02T08:06:11;3.45;;;1.83;;
73150;SDS011;61354;50.758;6.106;2022-09-02T08:08:37;3.13;;;2.20;;
73150;SDS011;61354;50.758;6.106;2022-09-02T08:11:03;3.17;;;1.95;;
73150;SDS011;61354;50.758;6.106;2022-09-02T08:13:30;4.40;;;2.15;;
73150;SDS011;61354;50.758;6.106;2022-09-02T08:15:56;3.45;;;2.10;;
73150;SDS011;61354;50.758;6.106;2022-09-02T08:18:22;3.55;;;1.75;;
73150;SDS011;61354;50.758;6.106;2022-09-02T08:20:47;3.88;;;2.10;;
73150;SDS011;61354;50.758;6.106;2022-09-02T08:23:13;3.85;;;1.98;;
73150;SDS011;61354;50.758;6.106;2022-09-02T08:25:39;3.15;;;1.98;;
73150;SDS011;61354;50.758;6.106;2022-09-02T08:28:05;3.42;;;1.75;;
73150;SDS011;61354;50.758;6.106;2022-09-02T08:30:31;3.60;;;2.08;;
73150;SDS011;61354;50.758;6.106;2022-09-02T08:32:57;2.80;;;1.90;;
73150;SDS011;61354;50.758;6.106;2022-09-02T08:35:23;2.78;;;1.80;;
73150;SDS011;61354;50.758;6.106;2022-09-02T08:37:49;3.38;;;1.95;;
73150;SDS011;61354;50.758;6.106;2022-09-02T08:40:16;2.80;;;1.88;;
73150;SDS011;61354;50.758;6.106;2022-09-02T08:42:45;4.55;;;1.95;;
73150;SDS011;61354;50.758;6.106;2022-09-02T08:51:08;2.75;;;1.75;;
73150;SDS011;61354;50.758;6.106;2022-09-02T08:56:32;2.85;;;1.73;;
73150;SDS011;61354;50.758;6.106;2022-09-02T08:58:57;3.03;;;1.80;;
73150;SDS011;61354;50.758;6.106;2022-09-02T09:16:59;3.67;;;1.80;;
73150;SDS011;61354;50.758;6.106;2022-09-02T09:19:53;2.92;;;1.80;;
73150;SDS011;61354;50.758;6.106;2022-09-02T09:22:30;2.50;;;1.80;;
73150;SDS011;61354;50.758;6.106;2022-09-02T09:25:01;2.58;;;1.90;;
73150;SDS011;61354;50.758;6.106;2022-09-02T09:27:31;2.67;;;1.75;;
73150;SDS011;61354;50.758;6.106;2022-09-02T09:29:57;2.50;;;1.75;;
73150;SDS011;61354;50.758;6.106;2022-09-02T09:37:32;3.35;;;1.80;;
73150;SDS011;61354;50.758;6.106;2022-09-02T09:40:00;5.50;;;1.90;;
73150;SDS011;61354;50.758;6.106;2022-09-02T09:42:48;3.05;;;1.90;;
73150;SDS011;61354;50.758;6.106;2022-09-02T09:50:35;3.92;;;2.20;;
73150;SDS011;61354;50.758;6.106;2022-09-02T09:53:34;3.20;;;1.70;;
73150;SDS011;61354;50.758;6.106;2022-09-02T09:58:45;2.42;;;1.75;;
73150;SDS011;61354;50.758;6.106;2022-09-02T10:03:59;2.45;;;1.77;;
73150;SDS011;61354;50.758;6.106;2022-09-02T10:11:26;3.28;;;1.85;;
73150;SDS011;61354;50.758;6.106;2022-09-02T10:13:55;2.55;;;1.70;;
73150;SDS011;61354;50.758;6.106;2022-09-02T11:01:19;3.20;;;1.90;;
73150;SDS011;61354;50.758;6.106;2022-09-02T11:04:37;2.70;;;1.70;;
73150;SDS011;61354;50.758;6.106;2022-09-02T11:07:11;3.17;;;1.80;;
73150;SDS011;61354;50.758;6.106;2022-09-02T11:09:54;2.65;;;1.70;;
73150;SDS011;61354;50.758;6.106;2022-09-02T11:54:14;3.08;;;1.80;;
73150;SDS011;61354;50.758;6.106;2022-09-02T11:56:46;3.00;;;2.00;;
73150;SDS011;61354;50.758;6.106;2022-09-02T12:08:11;4.28;;;1.85;;
73150;SDS011;61354;50.758;6.106;2022-09-02T12:40:54;2.42;;;1.52;;
73150;SDS011;61354;50.758;6.106;2022-09-02T12:46:47;2.80;;;1.70;;
73150;SDS011;61354;50.758;6.106;2022-09-02T12:52:47;3.95;;;1.75;;
73150;SDS011;61354;50.758;6.106;2022-09-02T13:04:32;3.58;;;1.83;;
73150;SDS011;61354;50.758;6.106;2022-09-02T13:15:29;2.63;;;1.70;;
73150;SDS011;61354;50.758;6.106;2022-09-02T13:32:14;2.80;;;1.90;;
73150;SDS011;61354;50.758;6.106;2022-09-02T13:34:47;3.15;;;1.80;;
73150;SDS011;61354;50.758;6.106;2022-09-02T13:39:55;2.33;;;1.55;;
73150;SDS011;61354;50.758;6.106;2022-09-02T13:42:22;10.13;;;1.88;;
73150;SDS011;61354;50.758;6.106;2022-09-02T13:44:49;7.78;;;1.95;;
73150;SDS011;61354;50.758;6.106;2022-09-02T13:47:16;3.72;;;1.80;;
73150;SDS011;61354;50.758;6.106;2022-09-02T13:50:04;2.80;;;1.60;;
73150;SDS011;61354;50.758;6.106;2022-09-02T13:52:47;3.22;;;1.67;;
73150;SDS011;61354;50.758;6.106;2022-09-02T13:58:19;4.25;;;1.63;;
73150;SDS011;61354;50.758;6.106;2022-09-02T14:04:10;3.33;;;1.80;;
73150;SDS011;61354;50.758;6.106;2022-09-02T14:06:40;3.33;;;1.73;;
73150;SDS011;61354;50.758;6.106;2022-09-02T14:09:19;2.22;;;1.60;;
73150;SDS011;61354;50.758;6.106;2022-09-02T14:11:48;2.72;;;1.90;;
73150;SDS011;61354;50.758;6.106;2022-09-02T14:14:15;2.00;;;1.52;;
73150;SDS011;61354;50.758;6.106;2022-09-02T14:16:43;4.32;;;1.80;;
73150;SDS011;61354;50.758;6.106;2022-09-02T14:21:44;3.13;;;1.90;;
73150;SDS011;61354;50.758;6.106;2022-09-02T14:24:13;5.57;;;1.70;;
73150;SDS011;61354;50.758;6.106;2022-09-02T14:26:44;3.08;;;2.08;;
73150;SDS011;61354;50.758;6.106;2022-09-02T14:29:12;2.92;;;1.50;;
73150;SDS011;61354;50.758;6.106;2022-09-02T14:31:40;3.13;;;1.70;;
73150;SDS011;61354;50.758;6.106;2022-09-02T14:34:41;2.70;;;1.67;;
73150;SDS011;61354;50.758;6.106;2022-09-02T14:40:43;3.60;;;1.85;;
73150;SDS011;61354;50.758;6.106;2022-09-02T15:05:11;2.75;;;1.50;;
73150;SDS011;61354;50.758;6.106;2022-09-02T15:07:40;3.08;;;1.40;;
73150;SDS011;61354;50.758;6.106;2022-09-02T15:10:10;2.72;;;1.50;;
73150;SDS011;61354;50.758;6.106;2022-09-02T15:12:48;2.58;;;1.50;;
73150;SDS011;61354;50.758;6.106;2022-09-02T15:24:09;2.17;;;1.50;;
73150;SDS011;61354;50.758;6.106;2022-09-02T15:26:34;2.92;;;1.80;;
73150;SDS011;61354;50.758;6.106;2022-09-02T15:29:00;3.38;;;1.67;;
73150;SDS011;61354;50.758;6.106;2022-09-02T15:31:27;2.58;;;1.50;;
73150;SDS011;61354;50.758;6.106;2022-09-02T15:33:53;2.97;;;1.70;;
73150;SDS011;61354;50.758;6.106;2022-09-02T15:36:19;2.28;;;1.60;;
73150;SDS011;61354;50.758;6.106;2022-09-02T15:38:45;2.80;;;1.70;;
73150;SDS011;61354;50.758;6.106;2022-09-02T15:43:45;1.98;;;1.40;;
73150;SDS011;61354;50.758;6.106;2022-09-02T15:46:16;3.85;;;1.80;;
73150;SDS011;61354;50.758;6.106;2022-09-02T15:48:49;3.10;;;1.90;;
73150;SDS011;61354;50.758;6.106;2022-09-02T15:51:16;3.67;;;1.73;;
73150;SDS011;61354;50.758;6.106;2022-09-02T15:53:44;5.25;;;2.00;;
73150;SDS011;61354;50.758;6.106;2022-09-02T15:56:19;2.30;;;1.60;;
73150;SDS011;61354;50.758;6.106;2022-09-02T15:58:46;3.28;;;1.80;;
73150;SDS011;61354;50.758;6.106;2022-09-02T16:01:12;3.00;;;1.92;;
73150;SDS011;61354;50.758;6.106;2022-09-02T16:03:38;2.90;;;1.95;;
73150;SDS011;61354;50.758;6.106;2022-09-02T16:06:04;2.40;;;1.70;;
73150;SDS011;61354;50.758;6.106;2022-09-02T16:08:35;3.30;;;1.90;;
73150;SDS011;61354;50.758;6.106;2022-09-02T16:14:10;4.07;;;1.90;;
73150;SDS011;61354;50.758;6.106;2022-09-02T16:16:36;2.50;;;1.58;;
73150;SDS011;61354;50.758;6.106;2022-09-02T16:19:02;6.60;;;1.73;;
73150;SDS011;61354;50.758;6.106;2022-09-02T16:21:29;3.33;;;2.03;;
73150;SDS011;61354;50.758;6.106;2022-09-02T16:23:55;4.93;;;1.67;;
73150;SDS011;61354;50.758;6.106;2022-09-02T16:28:50;4.13;;;2.30;;
73150;SDS011;61354;50.758;6.106;2022-09-02T16:31:18;4.88;;;1.63;;
73150;SDS011;61354;50.758;6.106;2022-09-02T16:33:51;2.80;;;1.88;;
73150;SDS011;61354;50.758;6.106;2022-09-02T16:36:19;3.05;;;1.90;;
73150;SDS011;61354;50.758;6.106;2022-09-02T16:38:45;2.90;;;1.73;;
73150;SDS011;61354;50.758;6.106;2022-09-02T16:41:33;5.03;;;1.80;;
73150;SDS011;61354;50.758;6.106;2022-09-02T16:43:59;3.15;;;1.70;;
73150;SDS011;61354;50.758;6.106;2022-09-02T16:46:32;3.10;;;1.70;;
73150;SDS011;61354;50.758;6.106;2022-09-02T16:48:59;1.92;;;1.60;;
73150;SDS011;61354;50.758;6.106;2022-09-02T16:51:25;4.45;;;1.92;;
73150;SDS011;61354;50.758;6.106;2022-09-02T16:53:55;3.72;;;2.00;;
73150;SDS011;61354;50.758;6.106;2022-09-02T16:56:22;2.78;;;1.85;;
73150;SDS011;61354;50.758;6.106;2022-09-02T16:58:48;4.13;;;2.10;;
73150;SDS011;61354;50.758;6.106;2022-09-02T17:01:15;5.53;;;1.88;;
73150;SDS011;61354;50.758;6.106;2022-09-02T17:03:41;4.10;;;1.58;;
73150;SDS011;61354;50.758;6.106;2022-09-02T17:06:08;3.10;;;1.65;;
73150;SDS011;61354;50.758;6.106;2022-09-02T17:08:34;4.18;;;1.77;;
73150;SDS011;61354;50.758;6.106;2022-09-02T17:13:40;3.05;;;1.85;;
73150;SDS011;61354;50.758;6.106;2022-09-02T17:16:06;3.00;;;1.63;;
73150;SDS011;61354;50.758;6.106;2022-09-02T17:18:32;3.38;;;1.80;;
73150;SDS011;61354;50.758;6.106;2022-09-02T17:24:01;3.05;;;1.48;;
73150;SDS011;61354;50.758;6.106;2022-09-02T17:26:29;3.17;;;1.77;;
73150;SDS011;61354;50.758;6.106;2022-09-02T17:28:58;3.40;;;1.50;;
73150;SDS011;61354;50.758;6.106;2022-09-02T17:31:28;3.78;;;1.50;;
73150;SDS011;61354;50.758;6.106;2022-09-02T17:33:55;3.50;;;1.65;;
73150;SDS011;61354;50.758;6.106;2022-09-02T17:36:24;2.75;;;1.60;;
73150;SDS011;61354;50.758;6.106;2022-09-02T17:38:54;4.72;;;1.52;;
73150;SDS011;61354;50.758;6.106;2022-09-02T17:41:22;2.17;;;1.50;;
73150;SDS011;61354;50.758;6.106;2022-09-02T17:44:07;2.65;;;1.58;;
73150;SDS011;61354;50.758;6.106;2022-09-02T17:46:32;2.45;;;1.55;;
73150;SDS011;61354;50.758;6.106;2022-09-02T17:48:58;3.30;;;1.70;;
73150;SDS011;61354;50.758;6.106;2022-09-02T17:51:24;5.13;;;1.80;;
73150;SDS011;61354;50.758;6.106;2022-09-02T17:53:50;3.33;;;1.75;;
73150;SDS011;61354;50.758;6.106;2022-09-02T18:10:37;4.30;;;1.80;;
73150;SDS011;61354;50.758;6.106;2022-09-02T18:13:06;4.00;;;1.50;;
73150;SDS011;61354;50.758;6.106;2022-09-02T18:18:27;4.13;;;1.63;;
73150;SDS011;61354;50.758;6.106;2022-09-02T18:20:54;3.22;;;1.40;;
73150;SDS011;61354;50.758;6.106;2022-09-02T18:33:50;4.10;;;1.75;;
73150;SDS011;61354;50.758;6.106;2022-09-02T18:49:44;2.90;;;1.48;;
73150;SDS011;61354;50.758;6.106;2022-09-02T18:52:10;5.75;;;1.92;;
73150;SDS011;61354;50.758;6.106;2022-09-02T18:54:45;4.13;;;1.73;;
73150;SDS011;61354;50.758;6.106;2022-09-02T18:57:24;4.82;;;1.73;;
73150;SDS011;61354;50.758;6.106;2022-09-02T19:00:10;2.60;;;1.65;;
73150;SDS011;61354;50.758;6.106;2022-09-02T19:03:10;3.22;;;1.70;;
73150;SDS011;61354;50.758;6.106;2022-09-02T19:05:35;4.75;;;1.70;;
73150;SDS011;61354;50.758;6.106;2022-09-02T19:08:08;2.47;;;1.60;;
73150;SDS011;61354;50.758;6.106;2022-09-02T19:11:10;3.13;;;1.52;;
73150;SDS011;61354;50.758;6.106;2022-09-02T19:13:48;3.25;;;1.60;;
73150;SDS011;61354;50.758;6.106;2022-09-02T19:16:16;3.50;;;1.70;;
73150;SDS011;61354;50.758;6.106;2022-09-02T19:19:08;3.50;;;1.58;;
73150;SDS011;61354;50.758;6.106;2022-09-02T19:21:45;3.88;;;1.42;;
73150;SDS011;61354;50.758;6.106;2022-09-02T19:24:16;2.63;;;1.50;;
73150;SDS011;61354;50.758;6.106;2022-09-02T19:26:50;3.08;;;1.48;;
73150;SDS011;61354;50.758;6.106;2022-09-02T19:29:20;3.08;;;1.52;;
73150;SDS011;61354;50.758;6.106;2022-09-02T19:31:46;4.10;;;1.75;;
73150;SDS011;61354;50.758;6.106;2022-09-02T19:34:13;3.65;;;1.80;;
73150;SDS011;61354;50.758;6.106;2022-09-02T19:36:41;2.95;;;1.60;;
73150;SDS011;61354;50.758;6.106;2022-09-02T19:39:09;2.00;;;1.40;;
73150;SDS011;61354;50.758;6.106;2022-09-02T19:41:34;3.22;;;1.30;;
73150;SDS011;61354;50.758;6.106;2022-09-02T19:44:00;2.67;;;1.60;;
73150;SDS011;61354;50.758;6.106;2022-09-02T19:46:25;2.83;;;1.80;;
73150;SDS011;61354;50.758;6.106;2022-09-02T19:48:51;2.15;;;1.40;;
73150;SDS011;61354;50.758;6.106;2022-09-02T19:51:17;2.60;;;1.30;;
73150;SDS011;61354;50.758;6.106;2022-09-02T19:53:43;3.13;;;1.52;;
73150;SDS011;61354;50.758;6.106;2022-09-02T19:56:09;5.40;;;1.60;;
73150;SDS011;61354;50.758;6.106;2022-09-02T19:58:35;2.15;;;1.40;;
73150;SDS011;61354;50.758;6.106;2022-09-02T20:01:01;2.10;;;1.45;;
73150;SDS011;61354;50.758;6.106;2022-09-02T20:03:28;2.30;;;1.52;;
73150;SDS011;61354;50.758;6.106;2022-09-02T20:05:54;4.00;;;1.50;;
73150;SDS011;61354;50.758;6.106;2022-09-02T20:08:20;3.28;;;1.40;;
73150;SDS011;61354;50.758;6.106;2022-09-02T20:10:53;2.10;;;1.60;;
73150;SDS011;61354;50.758;6.106;2022-09-02T20:13:20;4.13;;;1.50;;
73150;SDS011;61354;50.758;6.106;2022-09-02T20:15:47;4.20;;;1.65;;
73150;SDS011;61354;50.758;6.106;2022-09-02T20:18:14;3.65;;;1.88;;
73150;SDS011;61354;50.758;6.106;2022-09-02T20:20:42;3.38;;;1.45;;
73150;SDS011;61354;50.758;6.106;2022-09-02T20:23:09;3.13;;;1.80;;
73150;SDS011;61354;50.758;6.106;2022-09-02T20:28:33;1.90;;;1.35;;
73150;SDS011;61354;50.758;6.106;2022-09-02T20:31:03;4.90;;;1.90;;
73150;SDS011;61354;50.758;6.106;2022-09-02T20:37:09;2.30;;;1.35;;